TGL26FC YMML-ZSPD
Flight info
| Callsign | TGL26FC |
|---|---|
| Flight time | N/A |
| Altitude | 34000 |
| Route | MNG Q76 LAKOT Y80 VOMPA Q165 TL R346 PY B586 UNZ G339 AGIKA Z41 POTET Y592 ONIKU A593 LAMEN/K0895F340 A593 AKARA/K0895S1035 A593 DUMET DUM81A |
| Aircraft | A343/H-SDE2E3FGHIJ4J5M1RWXY/LB1D1 |
Departure
| Time | 2026-05-05 21:28 |
|---|---|
| Airport | Melbourne Airport (YMML) |
Arrival
| Time | N/A |
|---|---|
| Airport | Shanghai Pudong International Airport (ZSPD) |
| Time | Latitude | Longitude | Altitude | Speed | Heading |
|---|---|---|---|---|---|
| 2026-05-05 20:55 | -37.66909 | 144.84515 | 365 ft | 0 kts | 10° |
| 2026-05-05 21:12 | -37.66915 | 144.84513 | 370 ft | 3 kts | 9° |
| 2026-05-05 21:12 | -37.66935 | 144.84509 | 368 ft | 3 kts | 7° |
| 2026-05-05 21:12 | -37.66955 | 144.84507 | 369 ft | 3 kts | 3° |
| 2026-05-05 21:13 | -37.66975 | 144.84506 | 372 ft | 3 kts | 357° |
| 2026-05-05 21:13 | -37.66995 | 144.84509 | 373 ft | 3 kts | 341° |
| 2026-05-05 21:13 | -37.67011 | 144.84519 | 370 ft | 3 kts | 297° |
| 2026-05-05 21:13 | -37.67014 | 144.84527 | 370 ft | 0 kts | 267° |
| 2026-05-05 21:17 | -37.67015 | 144.84514 | 372 ft | 4 kts | 261° |
| 2026-05-05 21:17 | -37.67030 | 144.84456 | 368 ft | 10 kts | 251° |
| 2026-05-05 21:17 | -37.67053 | 144.84352 | 376 ft | 14 kts | 258° |
| 2026-05-05 21:18 | -37.67068 | 144.84240 | 375 ft | 11 kts | 260° |
| 2026-05-05 21:18 | -37.67079 | 144.84155 | 376 ft | 9 kts | 261° |
| 2026-05-05 21:18 | -37.67090 | 144.84092 | 377 ft | 6 kts | 251° |
| 2026-05-05 21:18 | -37.67117 | 144.84064 | 376 ft | 4 kts | 194° |
| 2026-05-05 21:19 | -37.67153 | 144.84061 | 376 ft | 6 kts | 181° |
| 2026-05-05 21:19 | -37.67199 | 144.84062 | 375 ft | 7 kts | 175° |
| 2026-05-05 21:19 | -37.67257 | 144.84071 | 374 ft | 9 kts | 172° |
| 2026-05-05 21:19 | -37.67325 | 144.84082 | 372 ft | 11 kts | 172° |
| 2026-05-05 21:20 | -37.67403 | 144.84097 | 370 ft | 12 kts | 170° |
| 2026-05-05 21:20 | -37.67484 | 144.84123 | 369 ft | 8 kts | 141° |
| 2026-05-05 21:20 | -37.67495 | 144.84166 | 365 ft | 5 kts | 106° |
| 2026-05-05 21:20 | -37.67497 | 144.84212 | 368 ft | 5 kts | 91° |
| 2026-05-05 21:21 | -37.67505 | 144.84261 | 364 ft | 6 kts | 110° |
| 2026-05-05 21:21 | -37.67533 | 144.84305 | 363 ft | 7 kts | 139° |
| 2026-05-05 21:21 | -37.67590 | 144.84339 | 367 ft | 11 kts | 164° |
| 2026-05-05 21:21 | -37.67677 | 144.84360 | 365 ft | 14 kts | 171° |
| 2026-05-05 21:22 | -37.67785 | 144.84380 | 364 ft | 17 kts | 172° |
| 2026-05-05 21:22 | -37.67903 | 144.84401 | 358 ft | 18 kts | 173° |
| 2026-05-05 21:22 | -37.68005 | 144.84420 | 358 ft | 10 kts | 171° |
| 2026-05-05 21:22 | -37.68024 | 144.84424 | 356 ft | 1 kts | 172° |
| 2026-05-05 21:23 | -37.68051 | 144.84429 | 357 ft | 7 kts | 172° |
| 2026-05-05 21:23 | -37.68114 | 144.84440 | 355 ft | 12 kts | 172° |
| 2026-05-05 21:23 | -37.68205 | 144.84457 | 349 ft | 14 kts | 171° |
| 2026-05-05 21:23 | -37.68308 | 144.84476 | 347 ft | 14 kts | 176° |
| 2026-05-05 21:24 | -37.68368 | 144.84453 | 334 ft | 9 kts | 214° |
| 2026-05-05 21:24 | -37.68422 | 144.84407 | 335 ft | 10 kts | 213° |
| 2026-05-05 21:24 | -37.68481 | 144.84357 | 332 ft | 11 kts | 213° |
| 2026-05-05 21:24 | -37.68534 | 144.84291 | 331 ft | 11 kts | 238° |
| 2026-05-05 21:25 | -37.68542 | 144.84268 | 332 ft | 0 kts | 248° |
| 2026-05-05 21:25 | -37.68543 | 144.84266 | 336 ft | 1 kts | 248° |
| 2026-05-05 21:25 | -37.68549 | 144.84240 | 332 ft | 5 kts | 256° |
| 2026-05-05 21:26 | -37.68558 | 144.84190 | 333 ft | 6 kts | 257° |
| 2026-05-05 21:26 | -37.68564 | 144.84136 | 336 ft | 6 kts | 272° |
| 2026-05-05 21:26 | -37.68545 | 144.84101 | 335 ft | 4 kts | 321° |
| 2026-05-05 21:26 | -37.68525 | 144.84092 | 337 ft | 0 kts | 345° |
| 2026-05-05 21:27 | -37.68437 | 144.84065 | 338 ft | 35 kts | 347° |
| 2026-05-05 21:27 | -37.68079 | 144.84003 | 357 ft | 74 kts | 353° |
| 2026-05-05 21:27 | -37.67420 | 144.83881 | 372 ft | 116 kts | 352° |
| 2026-05-05 21:28 | -37.66503 | 144.83712 | 395 ft | 150 kts | 351° |
| 2026-05-05 21:28 | -37.65368 | 144.83502 | 503 ft | 173 kts | 352° |
| 2026-05-05 21:28 | -37.64242 | 144.83296 | 1215 ft | 154 kts | 351° |
| 2026-05-05 21:28 | -37.63142 | 144.83083 | 1513 ft | 169 kts | 349° |
| 2026-05-05 21:29 | -37.61924 | 144.82837 | 1731 ft | 186 kts | 349° |
| 2026-05-05 21:29 | -37.60580 | 144.82568 | 1906 ft | 206 kts | 349° |
| 2026-05-05 21:29 | -37.59053 | 144.82492 | 2012 ft | 235 kts | 8° |
| 2026-05-05 21:29 | -37.57445 | 144.83203 | 2320 ft | 255 kts | 23° |
| 2026-05-05 21:30 | -37.55821 | 144.84202 | 2872 ft | 264 kts | 24° |
| 2026-05-05 21:30 | -37.54165 | 144.85242 | 3534 ft | 268 kts | 24° |
| 2026-05-05 21:30 | -37.52485 | 144.86286 | 4208 ft | 271 kts | 24° |
| 2026-05-05 21:30 | -37.50769 | 144.87340 | 4845 ft | 276 kts | 24° |
| 2026-05-05 21:31 | -37.49026 | 144.88405 | 5471 ft | 280 kts | 24° |
| 2026-05-05 21:31 | -37.47263 | 144.89478 | 6124 ft | 283 kts | 23° |
| 2026-05-05 21:31 | -37.45485 | 144.90557 | 6797 ft | 285 kts | 23° |
| 2026-05-05 21:31 | -37.43693 | 144.91645 | 7404 ft | 288 kts | 22° |
| 2026-05-05 21:32 | -37.41865 | 144.92684 | 8028 ft | 289 kts | 19° |
| 2026-05-05 21:32 | -37.39989 | 144.93613 | 8631 ft | 291 kts | 18° |
| 2026-05-05 21:32 | -37.38093 | 144.94541 | 9260 ft | 293 kts | 18° |
| 2026-05-05 21:32 | -37.36190 | 144.95483 | 9857 ft | 296 kts | 18° |
| 2026-05-05 21:33 | -37.34266 | 144.96445 | 10371 ft | 300 kts | 18° |
| 2026-05-05 21:33 | -37.32288 | 144.97437 | 10620 ft | 313 kts | 18° |
| 2026-05-05 21:33 | -37.30217 | 144.98478 | 10819 ft | 327 kts | 18° |
| 2026-05-05 21:33 | -37.28061 | 144.99562 | 11019 ft | 341 kts | 19° |
| 2026-05-05 21:34 | -37.25817 | 145.00695 | 11241 ft | 354 kts | 19° |
| 2026-05-05 21:34 | -37.23495 | 145.01869 | 11472 ft | 365 kts | 19° |
| 2026-05-05 21:34 | -37.21116 | 145.03071 | 11886 ft | 371 kts | 19° |
| 2026-05-05 21:34 | -37.18715 | 145.04284 | 12386 ft | 374 kts | 19° |
| 2026-05-05 21:35 | -37.16293 | 145.05507 | 12910 ft | 376 kts | 19° |
| 2026-05-05 21:35 | -37.13860 | 145.06734 | 13474 ft | 378 kts | 19° |
| 2026-05-05 21:35 | -37.11407 | 145.07970 | 14000 ft | 380 kts | 19° |
| 2026-05-05 21:35 | -37.08946 | 145.09208 | 14493 ft | 382 kts | 19° |
| 2026-05-05 21:36 | -37.06468 | 145.10454 | 14945 ft | 385 kts | 19° |
| 2026-05-05 21:36 | -37.03969 | 145.11710 | 15400 ft | 388 kts | 19° |
| 2026-05-05 21:36 | -37.01458 | 145.12969 | 15887 ft | 390 kts | 19° |
| 2026-05-05 21:36 | -36.98935 | 145.14235 | 16347 ft | 392 kts | 19° |
| 2026-05-05 21:37 | -36.96392 | 145.15510 | 16808 ft | 395 kts | 19° |
| 2026-05-05 21:37 | -36.93869 | 145.16775 | 17265 ft | 397 kts | 19° |
| 2026-05-05 21:37 | -36.91255 | 145.18056 | 17725 ft | 399 kts | 17° |
| 2026-05-05 21:37 | -36.88616 | 145.18962 | 18163 ft | 399 kts | 7° |
| 2026-05-05 21:38 | -36.85859 | 145.19275 | 18612 ft | 399 kts | 359° |
| 2026-05-05 21:38 | -36.83078 | 145.19258 | 19012 ft | 400 kts | 356° |
| 2026-05-05 21:38 | -36.80291 | 145.19105 | 19410 ft | 402 kts | 355° |
| 2026-05-05 21:38 | -36.77491 | 145.18893 | 19809 ft | 404 kts | 355° |
| 2026-05-05 21:39 | -36.74677 | 145.18671 | 20201 ft | 406 kts | 355° |
| 2026-05-05 21:39 | -36.71847 | 145.18458 | 20588 ft | 408 kts | 355° |
| 2026-05-05 21:39 | -36.69006 | 145.18261 | 20976 ft | 410 kts | 355° |
| 2026-05-05 21:39 | -36.66150 | 145.18077 | 21351 ft | 412 kts | 355° |
| 2026-05-05 21:40 | -36.63271 | 145.17901 | 21666 ft | 416 kts | 355° |
| 2026-05-05 21:40 | -36.60369 | 145.17728 | 22017 ft | 418 kts | 355° |
| 2026-05-05 21:40 | -36.57453 | 145.17557 | 22387 ft | 420 kts | 355° |
| 2026-05-05 21:40 | -36.54524 | 145.17385 | 22744 ft | 422 kts | 355° |
| 2026-05-05 21:41 | -36.51581 | 145.17212 | 23095 ft | 424 kts | 355° |
| 2026-05-05 21:41 | -36.48627 | 145.17038 | 23433 ft | 426 kts | 355° |
| 2026-05-05 21:41 | -36.45651 | 145.16862 | 23774 ft | 428 kts | 355° |
| 2026-05-05 21:41 | -36.42653 | 145.16686 | 23949 ft | 433 kts | 355° |
| 2026-05-05 21:42 | -36.39628 | 145.16507 | 24183 ft | 436 kts | 355° |
| 2026-05-05 21:42 | -36.36589 | 145.16327 | 24460 ft | 438 kts | 355° |
| 2026-05-05 21:42 | -36.33541 | 145.16146 | 24739 ft | 440 kts | 355° |
| 2026-05-05 21:42 | -36.30480 | 145.15965 | 25005 ft | 441 kts | 355° |
| 2026-05-05 21:43 | -36.27443 | 145.15786 | 25262 ft | 443 kts | 355° |
| 2026-05-05 21:43 | -36.24361 | 145.15604 | 25502 ft | 445 kts | 354° |
| 2026-05-05 21:43 | -36.21249 | 145.15421 | 25636 ft | 450 kts | 354° |
| 2026-05-05 21:43 | -36.18113 | 145.15236 | 25873 ft | 452 kts | 354° |
| 2026-05-05 21:44 | -36.14963 | 145.15051 | 26147 ft | 453 kts | 354° |
| 2026-05-05 21:44 | -36.11807 | 145.14866 | 26397 ft | 455 kts | 354° |
| 2026-05-05 21:44 | -36.08642 | 145.14680 | 26645 ft | 456 kts | 354° |
| 2026-05-05 21:44 | -36.05466 | 145.14494 | 26885 ft | 458 kts | 354° |
| 2026-05-05 21:45 | -36.02274 | 145.14307 | 27089 ft | 460 kts | 354° |
| 2026-05-05 21:45 | -35.99064 | 145.14118 | 27277 ft | 463 kts | 354° |
| 2026-05-05 21:45 | -35.95842 | 145.13930 | 27514 ft | 464 kts | 354° |
| 2026-05-05 21:45 | -35.92612 | 145.13741 | 27756 ft | 466 kts | 354° |
| 2026-05-05 21:46 | -35.89372 | 145.13552 | 27977 ft | 467 kts | 354° |
| 2026-05-05 21:46 | -35.86116 | 145.13362 | 28199 ft | 469 kts | 354° |
| 2026-05-05 21:46 | -35.82854 | 145.13171 | 28406 ft | 470 kts | 354° |
| 2026-05-05 21:46 | -35.79579 | 145.12980 | 28575 ft | 472 kts | 354° |
| 2026-05-05 21:47 | -35.76284 | 145.12788 | 28771 ft | 474 kts | 354° |
| 2026-05-05 21:47 | -35.73025 | 145.12599 | 28989 ft | 475 kts | 354° |
| 2026-05-05 21:47 | -35.69728 | 145.12408 | 29294 ft | 474 kts | 354° |
| 2026-05-05 21:47 | -35.66394 | 145.12215 | 29608 ft | 473 kts | 354° |
| 2026-05-05 21:48 | -35.64217 | 145.12089 | 29798 ft | 473 kts | 354° |
| 2026-05-05 21:48 | -35.59870 | 145.11838 | 30155 ft | 472 kts | 354° |
| 2026-05-05 21:48 | -35.56587 | 145.11648 | 30386 ft | 472 kts | 354° |
| 2026-05-05 21:48 | -35.53308 | 145.11458 | 30621 ft | 471 kts | 354° |
| 2026-05-05 21:49 | -35.50038 | 145.11269 | 30866 ft | 470 kts | 354° |
| 2026-05-05 21:49 | -35.47834 | 145.11142 | 31036 ft | 469 kts | 354° |
| 2026-05-05 21:49 | -35.44615 | 145.10956 | 31271 ft | 468 kts | 354° |
| 2026-05-05 21:49 | -35.41363 | 145.10768 | 31497 ft | 467 kts | 354° |
| 2026-05-05 21:50 | -35.38120 | 145.10581 | 31701 ft | 467 kts | 354° |
| 2026-05-05 21:50 | -35.34882 | 145.10394 | 31895 ft | 466 kts | 354° |
| 2026-05-05 21:50 | -35.31643 | 145.10208 | 32112 ft | 465 kts | 354° |
| 2026-05-05 21:50 | -35.28411 | 145.10022 | 32318 ft | 465 kts | 354° |
| 2026-05-05 21:51 | -35.25187 | 145.09836 | 32523 ft | 464 kts | 354° |
| 2026-05-05 21:51 | -35.21964 | 145.09651 | 32732 ft | 463 kts | 354° |
| 2026-05-05 21:51 | -35.18749 | 145.09467 | 32926 ft | 462 kts | 354° |
| 2026-05-05 21:51 | -35.15536 | 145.09283 | 33115 ft | 462 kts | 354° |
| 2026-05-05 21:52 | -35.09136 | 145.08917 | 33257 ft | 455 kts | 354° |
| 2026-05-05 21:52 | -35.05989 | 145.08739 | 33262 ft | 451 kts | 354° |
| 2026-05-05 21:53 | -34.99721 | 145.08380 | 33258 ft | 451 kts | 354° |
| 2026-05-05 21:53 | -34.93450 | 145.08120 | 33260 ft | 453 kts | 359° |
| 2026-05-05 21:54 | -34.87140 | 145.08519 | 33258 ft | 454 kts | 0° |
| 2026-05-05 21:54 | -34.80831 | 145.09049 | 33267 ft | 454 kts | 1° |
| 2026-05-05 21:55 | -34.74531 | 145.09600 | 33258 ft | 455 kts | 1° |
| 2026-05-05 21:55 | -34.68213 | 145.10141 | 33268 ft | 455 kts | 1° |
| 2026-05-05 21:56 | -34.61897 | 145.10674 | 33259 ft | 455 kts | 1° |
| 2026-05-05 21:56 | -34.55577 | 145.11204 | 33262 ft | 455 kts | 1° |
| 2026-05-05 21:57 | -34.49260 | 145.11733 | 33259 ft | 455 kts | 1° |
| 2026-05-05 21:57 | -34.42937 | 145.12262 | 33265 ft | 455 kts | 1° |
| 2026-05-05 21:58 | -34.36657 | 145.12787 | 33260 ft | 455 kts | 1° |
| 2026-05-05 21:58 | -34.30333 | 145.13315 | 33268 ft | 456 kts | 1° |
| 2026-05-05 21:59 | -34.24007 | 145.13842 | 33272 ft | 456 kts | 1° |
| 2026-05-05 21:59 | -34.17680 | 145.14368 | 33270 ft | 456 kts | 1° |
| 2026-05-05 22:00 | -34.11349 | 145.14894 | 33270 ft | 456 kts | 1° |
| 2026-05-05 22:00 | -34.05014 | 145.15419 | 33277 ft | 456 kts | 1° |
| 2026-05-05 22:01 | -33.98680 | 145.15944 | 33277 ft | 456 kts | 1° |
| 2026-05-05 22:01 | -33.92346 | 145.16467 | 33271 ft | 456 kts | 1° |
| 2026-05-05 22:02 | -33.86004 | 145.16991 | 33274 ft | 457 kts | 2° |
| 2026-05-05 22:02 | -33.79664 | 145.17514 | 33273 ft | 457 kts | 2° |
| 2026-05-05 22:03 | -33.73319 | 145.18037 | 33273 ft | 457 kts | 1° |